Time,TemperatureF,DewpointF,PressureIn,WindDirection,WindDirectionDegrees,WindSpeedMPH,WindSpeedGustMPH,Humidity,HourlyPrecipIn,Conditions,Clouds,dailyrainin,SoftwareType,DateUTC
2013-08-23 00:04:00,71.0,66.0,29.98,NW,324,5.0,7.0,83,0.00,,,0.35,,2013-08-23 04:04:00,
2013-08-23 00:24:00,71.0,65.0,29.98,NNW,330,3.0,5.0,82,0.00,,,0.35,,2013-08-23 04:24:00,
2013-08-23 00:54:00,70.0,62.0,29.98,North,356,3.0,5.0,76,0.00,,,0.35,,2013-08-23 04:54:00,
2013-08-23 01:04:00,70.0,62.0,29.98,North,356,3.0,5.0,76,0.00,,,0.35,,2013-08-23 05:04:00,
2013-08-23 01:22:00,70.0,63.0,29.99,NNW,335,3.0,4.0,78,0.00,,,0.35,,2013-08-23 05:22:00,
2013-08-23 01:52:00,69.0,62.0,29.98,NNW,341,4.0,6.0,78,0.00,,,0.35,,2013-08-23 05:52:00,
2013-08-23 02:22:00,69.0,62.0,29.98,NNW,328,3.0,6.0,78,0.00,,,0.35,,2013-08-23 06:22:00,
2013-08-23 02:42:00,69.0,61.0,29.98,NNW,341,4.0,7.0,77,0.00,,,0.35,,2013-08-23 06:42:00,
2013-08-23 02:52:00,69.0,61.0,29.98,North,351,4.0,5.0,77,0.00,,,0.35,,2013-08-23 06:52:00,
2013-08-23 03:22:00,69.0,62.0,29.98,North,355,2.0,5.0,78,0.00,,,0.35,,2013-08-23 07:22:00,
2013-08-23 03:52:00,68.0,62.0,29.98,North,3,2.0,4.0,80,0.00,,,0.35,,2013-08-23 07:52:00,
2013-08-23 04:02:00,68.0,62.0,29.98,North,3,2.0,4.0,80,0.00,,,0.35,,2013-08-23 08:02:00,
2013-08-23 04:22:00,68.0,62.0,29.97,NNW,335,2.0,6.0,80,0.00,,,0.35,,2013-08-23 08:22:00,
2013-08-23 04:30:00,67.0,61.0,29.98,NNW,336,2.0,3.0,82,0.00,,,0.35,,2013-08-23 08:30:00,
2013-08-23 04:52:00,67.0,61.0,29.98,NNW,336,2.0,3.0,82,0.00,,,0.35,,2013-08-23 08:52:00,
2013-08-23 05:01:00,67.0,61.0,29.98,NNW,336,2.0,3.0,82,0.00,,,0.35,,2013-08-23 09:01:00,
2013-08-23 05:12:00,67.0,61.0,29.98,NNW,336,2.0,3.0,82,0.00,,,0.35,,2013-08-23 09:12:00,
2013-08-23 05:21:00,67.0,61.0,29.98,NNW,336,2.0,3.0,82,0.00,,,0.35,,2013-08-23 09:21:00,
2013-08-23 06:23:00,66.0,61.0,29.99,NNW,345,2.0,3.0,85,0.00,,,0.35,,2013-08-23 10:23:00,
2013-08-23 06:53:00,67.0,62.0,30.00,NE,45,2.0,3.0,85,0.00,,,0.35,,2013-08-23 10:53:00,
2013-08-23 07:02:00,67.0,62.0,30.00,NE,45,2.0,3.0,85,0.00,,,0.35,,2013-08-23 11:02:00,
2013-08-23 07:22:00,66.0,62.0,30.01,NE,47,2.0,4.0,87,0.00,,,0.35,,2013-08-23 11:22:00,
2013-08-23 07:53:00,67.0,62.0,30.01,NNE,25,2.0,3.0,85,0.00,,,0.35,,2013-08-23 11:53:00,
2013-08-23 08:11:00,67.0,63.0,30.02,NNW,344,0.0,1.0,86,0.00,,,0.35,,2013-08-23 12:11:00,
2013-08-23 08:22:00,67.0,63.0,30.02,NNW,344,0.0,1.0,86,0.00,,,0.35,,2013-08-23 12:22:00,
2013-08-23 08:52:00,68.0,63.0,30.03,North,350,2.0,4.0,84,0.00,,,0.35,,2013-08-23 12:52:00,
2013-08-23 09:12:00,68.0,63.0,30.03,North,350,2.0,4.0,84,0.00,,,0.35,,2013-08-23 13:12:00,
2013-08-23 09:22:00,68.0,63.0,30.03,North,350,2.0,4.0,84,0.00,,,0.35,,2013-08-23 13:22:00,
2013-08-23 09:50:00,70.0,64.0,30.04,NNE,22,3.0,4.0,82,0.00,,,0.35,,2013-08-23 13:50:00,
2013-08-23 09:53:00,69.0,64.0,30.04,North,359,3.0,4.0,83,0.00,,,0.35,,2013-08-23 13:53:00,
2013-08-23 10:02:00,69.0,64.0,30.04,North,359,3.0,4.0,83,0.00,,,0.35,,2013-08-23 14:02:00,
2013-08-23 10:22:00,70.0,64.0,30.04,NNE,22,3.0,4.0,82,0.00,,,0.35,,2013-08-23 14:22:00,
2013-08-23 10:32:00,70.0,64.0,30.04,NNE,22,3.0,4.0,82,0.00,,,0.35,,2013-08-23 14:32:00,
2013-08-23 12:24:00,71.0,58.0,30.08,NNE,29,3.0,6.0,63,0.00,,,0.35,,2013-08-23 16:24:00,
2013-08-23 12:53:00,70.0,58.0,30.09,NNW,348,3.0,3.0,65,0.00,,,0.35,,2013-08-23 16:53:00,
2013-08-23 13:24:00,71.0,59.0,30.09,NNE,14,2.0,5.0,66,0.00,,,0.35,,2013-08-23 17:24:00,
2013-08-23 13:53:00,70.0,60.0,30.08,NNW,347,2.0,5.0,70,0.00,,,0.35,,2013-08-23 17:53:00,
2013-08-23 14:12:00,70.0,60.0,30.08,North,353,3.0,5.0,70,0.00,,,0.33,,2013-08-23 18:12:00,
2013-08-23 14:22:00,70.0,60.0,30.08,North,353,3.0,5.0,70,0.00,,,0.33,,2013-08-23 18:22:00,
2013-08-23 14:52:00,70.0,60.0,30.06,NNW,346,2.0,4.0,71,0.00,,,0.00,,2013-08-23 18:52:00,
2013-08-23 15:22:00,69.0,60.0,30.07,North,352,2.0,3.0,72,0.00,,,0.00,,2013-08-23 19:22:00,
2013-08-23 15:52:00,69.0,60.0,30.07,NNW,334,3.0,6.0,72,0.00,,,0.00,,2013-08-23 19:52:00,
2013-08-23 16:22:00,69.0,60.0,30.07,NW,311,3.0,5.0,73,0.00,,,0.00,,2013-08-23 20:22:00,
2013-08-23 16:52:00,70.0,62.0,30.07,NNW,337,2.0,4.0,75,0.00,,,0.00,,2013-08-23 20:52:00,
2013-08-23 17:22:00,69.0,61.0,30.07,North,354,2.0,4.0,76,0.00,,,0.00,,2013-08-23 21:22:00,
2013-08-23 17:54:00,70.0,62.0,30.06,NNW,343,2.0,3.0,75,0.00,,,0.00,,2013-08-23 21:54:00,
2013-08-23 18:24:00,70.0,61.0,30.06,NNW,337,1.0,3.0,73,0.00,,,0.00,,2013-08-23 22:24:00,
2013-08-23 18:53:00,71.0,62.0,30.06,North,357,0.0,0.0,74,0.00,,,0.00,,2013-08-23 22:53:00,
2013-08-23 19:22:00,71.0,61.0,30.06,NW,326,1.0,3.0,70,0.00,,,0.00,,2013-08-23 23:22:00,
2013-08-23 19:54:00,71.0,62.0,30.06,SSE,151,0.0,1.0,73,0.00,,,0.00,,2013-08-23 23:54:00,
2013-08-23 20:22:00,68.0,61.0,30.07,NNE,30,1.0,1.0,77,0.00,,,0.00,,2013-08-24 00:22:00,
2013-08-23 20:32:00,68.0,61.0,30.07,NNE,30,1.0,1.0,77,0.00,,,0.00,,2013-08-24 00:32:00,
2013-08-23 20:53:00,66.0,60.0,30.08,WSW,250,0.0,1.0,82,0.00,,,0.00,,2013-08-24 00:53:00,
2013-08-23 21:11:00,66.0,61.0,30.09,NNW,347,0.0,1.0,83,0.00,,,0.00,,2013-08-24 01:11:00,
2013-08-23 21:22:00,66.0,61.0,30.09,NNW,347,0.0,1.0,83,0.00,,,0.00,,2013-08-24 01:22:00,
2013-08-23 21:32:00,66.0,61.0,30.09,NNW,347,0.0,1.0,83,0.00,,,0.00,,2013-08-24 01:32:00,
2013-08-23 21:53:00,64.0,59.0,30.10,NNE,12,1.0,1.0,83,0.00,,,0.00,,2013-08-24 01:53:00,
2013-08-23 22:03:00,64.0,59.0,30.10,NNE,12,1.0,1.0,83,0.00,,,0.00,,2013-08-24 02:03:00,
2013-08-23 22:20:00,63.0,59.0,30.11,NW,318,1.0,2.0,88,0.00,,,0.00,,2013-08-24 02:20:00,
2013-08-23 22:22:00,63.0,59.0,30.11,NNW,334,1.0,1.0,86,0.00,,,0.00,,2013-08-24 02:22:00,
2013-08-23 22:32:00,63.0,59.0,30.11,NNW,334,1.0,1.0,86,0.00,,,0.00,,2013-08-24 02:32:00,
2013-08-23 22:52:00,63.0,59.0,30.11,NW,318,1.0,2.0,88,0.00,,,0.00,,2013-08-24 02:52:00,
2013-08-23 23:02:00,63.0,59.0,30.11,NW,318,1.0,2.0,88,0.00,,,0.00,,2013-08-24 03:02:00,
2013-08-23 23:12:00,63.0,59.0,30.11,NW,318,1.0,2.0,88,0.00,,,0.00,,2013-08-24 03:12:00,
2013-08-23 23:55:00,64.0,56.0,30.13,NNE,24,2.0,2.0,76,0.00,,,0.00,,2013-08-24 03:55:00,